Wetterdaten: Woche 02.03.26 - 08.03.26 (KW10)
Datum Zeit Temp. Aussen Temp. o. S. Temp +5cm Feuchte Auss Luftdruck Regen Sonnenschein Solar Windböen Empfang
02.03.2026 00:00 7,3 °C 6,2 °C 2,9 °C 81 % 1022,5 hPa 0,0 l/m² 0,00 h 0 W/m² 7,3 km/h (2 Bft) 94,88 %
02.03.2026 01:00 6,7 °C 5,8 °C 2,3 °C 84 % 1022,4 hPa 0,0 l/m² 0,00 h 0 W/m² 8,7 km/h (2 Bft) 95,87 %
02.03.2026 02:00 6,3 °C 5,6 °C 2,2 °C 86 % 1022,3 hPa 0,0 l/m² 0,00 h 0 W/m² 9,5 km/h (2 Bft) 97,79 %
02.03.2026 03:00 6,1 °C 5,1 °C 1,7 °C 88 % 1022,0 hPa 0,0 l/m² 0,00 h 0 W/m² 11,5 km/h (2 Bft) 95,64 %
02.03.2026 04:00 5,8 °C 5,0 °C 1,7 °C 88 % 1021,8 hPa 0,0 l/m² 0,00 h 0 W/m² 12,0 km/h (2 Bft) 98,75 %
02.03.2026 05:00 5,5 °C 4,7 °C 1,1 °C 89 % 1021,8 hPa 0,0 l/m² 0,00 h 0 W/m² 12,8 km/h (3 Bft) 98,00 %
02.03.2026 06:00 5,3 °C 4,4 °C 1,1 °C 89 % 1021,6 hPa 0,0 l/m² 0,00 h 0 W/m² 10,1 km/h (2 Bft) 96,83 %
02.03.2026 07:00 5,3 °C 4,6 °C 1,1 °C 89 % 1021,7 hPa 0,0 l/m² 0,00 h 11 W/m² 13,7 km/h (3 Bft) 97,72 %
02.03.2026 08:00 5,9 °C 5,7 °C 1,8 °C 89 % 1022,0 hPa 0,0 l/m² 0,20 h 47 W/m² 17,3 km/h (3 Bft) 97,22 %
02.03.2026 09:00 8,0 °C 10,0 °C 3,6 °C 84 % 1022,1 hPa 0,0 l/m² 0,83 h 195 W/m² 18,0 km/h (3 Bft) 95,30 %
02.03.2026 10:00 10,5 °C 15,8 °C 6,7 °C 76 % 1022,2 hPa 0,0 l/m² 0,80 h 327 W/m² 19,9 km/h (4 Bft) 99,23 %
02.03.2026 11:00 13,3 °C 20,6 °C 14,4 °C 68 % 1022,0 hPa 0,0 l/m² 1,00 h 521 W/m² 20,7 km/h (4 Bft) 97,35 %
02.03.2026 12:00 15,1 °C 20,2 °C 13,1 °C 62 % 1021,7 hPa 0,0 l/m² 1,00 h 563 W/m² 20,5 km/h (4 Bft) 96,70 %
02.03.2026 13:00 16,8 °C 23,1 °C 12,1 °C 57 % 1021,1 hPa 0,0 l/m² 1,00 h 550 W/m² 21,1 km/h (4 Bft) 98,36 %
02.03.2026 14:00 17,3 °C 22,1 °C 12,2 °C 56 % 1020,7 hPa 0,0 l/m² 1,00 h 487 W/m² 20,0 km/h (4 Bft) 96,01 %
02.03.2026 15:00 17,6 °C 20,7 °C 12,3 °C 56 % 1020,4 hPa 0,0 l/m² 1,00 h 377 W/m² 20,5 km/h (4 Bft) 97,40 %
02.03.2026 16:00 17,3 °C 16,7 °C 11,5 °C 57 % 1020,2 hPa 0,0 l/m² 0,63 h 171 W/m² 16,8 km/h (3 Bft) 99,22 %
02.03.2026 17:00 15,8 °C 14,5 °C 10,4 °C 60 % 1020,4 hPa 0,0 l/m² 0,00 h 20 W/m² 12,8 km/h (3 Bft) 95,73 %
02.03.2026 18:00 14,3 °C 12,6 °C 8,6 °C 63 % 1020,9 hPa 0,0 l/m² 0,00 h 7 W/m² 5,3 km/h (1 Bft) 99,13 %
02.03.2026 19:00 12,7 °C 11,4 °C 7,3 °C 67 % 1021,4 hPa 0,0 l/m² 0,00 h 0 W/m² 5,8 km/h (2 Bft) 94,74 %
02.03.2026 20:00 12,0 °C 10,9 °C 7,1 °C 68 % 1021,8 hPa 0,0 l/m² 0,00 h 0 W/m² 10,7 km/h (2 Bft) 98,15 %
02.03.2026 21:00 11,2 °C 10,0 °C 6,3 °C 71 % 1022,2 hPa 0,0 l/m² 0,00 h 0 W/m² 11,0 km/h (2 Bft) 97,22 %
02.03.2026 22:00 10,4 °C 9,3 °C 5,8 °C 75 % 1022,7 hPa 0,0 l/m² 0,00 h 0 W/m² 13,3 km/h (3 Bft) 98,72 %
02.03.2026 23:00 9,8 °C 8,7 °C 5,2 °C 78 % 1023,0 hPa 0,0 l/m² 0,00 h 0 W/m² 14,9 km/h (3 Bft) 96,09 %
03.03.2026 00:00 9,2 °C 8,1 °C 4,6 °C 80 % 1023,3 hPa 0,0 l/m² 0,00 h 0 W/m² 14,5 km/h (3 Bft) 98,12 %
03.03.2026 01:00 8,4 °C 7,3 °C 3,8 °C 82 % 1023,5 hPa 0,0 l/m² 0,00 h 0 W/m² 11,8 km/h (2 Bft) 96,26 %
03.03.2026 02:00 7,7 °C 6,7 °C 3,3 °C 84 % 1023,9 hPa 0,0 l/m² 0,00 h 0 W/m² 7,1 km/h (2 Bft) 95,00 %
03.03.2026 03:00 7,3 °C 6,3 °C 2,9 °C 85 % 1024,1 hPa 0,0 l/m² 0,00 h 0 W/m² 4,8 km/h (1 Bft) 99,08 %
03.03.2026 04:00 6,8 °C 6,1 °C 2,7 °C 86 % 1024,4 hPa 0,0 l/m² 0,00 h 0 W/m² 5,0 km/h (1 Bft) 97,01 %
03.03.2026 05:00 6,5 °C 5,6 °C 2,2 °C 86 % 1024,9 hPa 0,0 l/m² 0,00 h 0 W/m² 6,9 km/h (2 Bft) 97,29 %
03.03.2026 06:00 6,2 °C 5,6 °C 2,0 °C 86 % 1025,0 hPa 0,0 l/m² 0,00 h 0 W/m² 11,4 km/h (2 Bft) 96,08 %
03.03.2026 07:00 6,1 °C 5,6 °C 1,7 °C 86 % 1025,3 hPa 0,0 l/m² 0,00 h 12 W/m² 11,9 km/h (2 Bft) 98,58 %
03.03.2026 08:00 6,5 °C 6,5 °C 2,5 °C 87 % 1025,9 hPa 0,0 l/m² 0,20 h 53 W/m² 11,1 km/h (2 Bft) 95,26 %
03.03.2026 09:00 8,9 °C 11,5 °C 4,4 °C 83 % 1026,3 hPa 0,0 l/m² 0,80 h 202 W/m² 12,5 km/h (3 Bft) 97,29 %
03.03.2026 10:00 11,8 °C 18,6 °C 7,9 °C 77 % 1026,6 hPa 0,0 l/m² 0,83 h 328 W/m² 9,9 km/h (2 Bft) 94,93 %
03.03.2026 11:00 15,5 °C 26,0 °C 17,6 °C 68 % 1026,7 hPa 0,0 l/m² 1,00 h 520 W/m² 8,1 km/h (2 Bft) 96,51 %
03.03.2026 12:00 17,5 °C 24,3 °C 14,9 °C 62 % 1026,7 hPa 0,0 l/m² 1,00 h 514 W/m² 8,3 km/h (2 Bft) 96,46 %
03.03.2026 13:00 18,7 °C 27,4 °C 12,9 °C 60 % 1026,4 hPa 0,0 l/m² 1,00 h 535 W/m² 8,9 km/h (2 Bft) 97,58 %
03.03.2026 14:00 19,2 °C 25,6 °C 13,1 °C 58 % 1026,2 hPa 0,0 l/m² 1,00 h 474 W/m² 7,6 km/h (2 Bft) 98,33 %
03.03.2026 15:00 19,7 °C 24,5 °C 13,4 °C 56 % 1026,1 hPa 0,0 l/m² 1,00 h 373 W/m² 6,7 km/h (2 Bft) 98,22 %
03.03.2026 16:00 19,0 °C 18,6 °C 11,9 °C 57 % 1025,9 hPa 0,0 l/m² 0,67 h 180 W/m² 7,1 km/h (2 Bft) 96,22 %
03.03.2026 17:00 17,0 °C 15,2 °C 10,3 °C 61 % 1025,8 hPa 0,0 l/m² 0,00 h 25 W/m² 4,8 km/h (1 Bft) 98,77 %
03.03.2026 18:00 15,4 °C 12,4 °C 7,5 °C 66 % 1026,1 hPa 0,0 l/m² 0,00 h 7 W/m² 0,1 km/h (0 Bft) 93,45 %
03.03.2026 19:00 13,2 °C 10,5 °C 5,7 °C 71 % 1026,3 hPa 0,0 l/m² 0,00 h 0 W/m² 0,0 km/h (0 Bft) 98,29 %
03.03.2026 20:00 11,4 °C 9,0 °C 4,6 °C 76 % 1026,8 hPa 0,0 l/m² 0,00 h 0 W/m² 0,1 km/h (0 Bft) 95,82 %
03.03.2026 21:00 10,0 °C 7,9 °C 3,6 °C 79 % 1027,1 hPa 0,0 l/m² 0,00 h 0 W/m² 0,0 km/h (0 Bft) 97,67 %
03.03.2026 22:00 8,7 °C 6,7 °C 2,8 °C 81 % 1027,4 hPa 0,0 l/m² 0,00 h 0 W/m² 0,0 km/h (0 Bft) 95,09 %
03.03.2026 23:00 7,6 °C 5,9 °C 2,2 °C 85 % 1027,5 hPa 0,0 l/m² 0,00 h 0 W/m² 0,2 km/h (0 Bft) 95,95 %
04.03.2026 00:00 6,9 °C 5,2 °C 1,8 °C 88 % 1027,5 hPa 0,0 l/m² 0,00 h 0 W/m² 0,7 km/h (0 Bft) 98,56 %
04.03.2026 01:00 6,2 °C 5,0 °C 1,4 °C 89 % 1027,5 hPa 0,0 l/m² 0,00 h 0 W/m² 1,0 km/h (0 Bft) 97,08 %
04.03.2026 02:00 6,5 °C 5,6 °C 1,9 °C 92 % 1027,4 hPa 0,0 l/m² 0,00 h 0 W/m² 0,3 km/h (0 Bft) 96,62 %
04.03.2026 03:00 5,9 °C 4,1 °C 0,8 °C 92 % 1027,3 hPa 0,0 l/m² 0,00 h 0 W/m² 0,0 km/h (0 Bft) 96,58 %
04.03.2026 04:00 5,0 °C 3,6 °C 0,3 °C 92 % 1027,1 hPa 0,0 l/m² 0,00 h 0 W/m² 0,1 km/h (0 Bft) 97,39 %
04.03.2026 05:00 4,3 °C 2,8 °C -0,2 °C 92 % 1027,2 hPa 0,0 l/m² 0,00 h 0 W/m² 0,0 km/h (0 Bft) 96,51 %
04.03.2026 06:00 3,8 °C 2,7 °C -0,6 °C 92 % 1027,2 hPa 0,0 l/m² 0,00 h 0 W/m² 0,0 km/h (0 Bft) 96,70 %
04.03.2026 07:00 3,6 °C 2,5 °C -0,7 °C 93 % 1027,3 hPa 0,0 l/m² 0,00 h 15 W/m² 0,1 km/h (0 Bft) 96,96 %
04.03.2026 08:00 4,1 °C 4,5 °C 0,6 °C 95 % 1027,6 hPa 0,0 l/m² 0,17 h 59 W/m² 0,5 km/h (0 Bft) 96,93 %
04.03.2026 09:00 7,0 °C 11,0 °C 3,4 °C 96 % 1027,7 hPa 0,0 l/m² 0,77 h 191 W/m² 1,3 km/h (1 Bft) 97,70 %
04.03.2026 10:00 10,2 °C 17,5 °C 7,0 °C 91 % 1027,8 hPa 0,0 l/m² 0,80 h 320 W/m² 4,9 km/h (1 Bft) 98,72 %
04.03.2026 11:00 14,1 °C 23,9 °C 14,8 °C 76 % 1027,7 hPa 0,0 l/m² 1,00 h 488 W/m² 5,5 km/h (1 Bft) 96,63 %
04.03.2026 12:00 15,8 °C 23,4 °C 12,6 °C 71 % 1027,3 hPa 0,0 l/m² 1,00 h 489 W/m² 6,0 km/h (2 Bft) 99,03 %
04.03.2026 13:00 17,9 °C 27,2 °C 12,1 °C 64 % 1026,8 hPa 0,0 l/m² 1,00 h 538 W/m² 6,4 km/h (2 Bft) 97,71 %
04.03.2026 14:00 19,2 °C 26,2 °C 12,7 °C 60 % 1026,2 hPa 0,0 l/m² 1,00 h 485 W/m² 7,3 km/h (2 Bft) 95,84 %
04.03.2026 15:00 19,7 °C 24,5 °C 12,7 °C 56 % 1025,8 hPa 0,0 l/m² 1,00 h 368 W/m² 5,7 km/h (1 Bft) 99,57 %
04.03.2026 16:00 18,0 °C 17,3 °C 11,1 °C 58 % 1025,3 hPa 0,0 l/m² 0,73 h 178 W/m² 4,8 km/h (1 Bft) 96,26 %
04.03.2026 17:00 16,2 °C 14,6 °C 9,4 °C 62 % 1025,1 hPa 0,0 l/m² 0,00 h 38 W/m² 1,6 km/h (1 Bft) 97,92 %
04.03.2026 18:00 14,5 °C 11,3 °C 6,5 °C 67 % 1025,1 hPa 0,0 l/m² 0,00 h 9 W/m² 0,0 km/h (0 Bft) 98,14 %
04.03.2026 19:00 12,1 °C 9,2 °C 4,8 °C 72 % 1025,2 hPa 0,0 l/m² 0,00 h 0 W/m² 0,0 km/h (0 Bft) 96,67 %
04.03.2026 20:00 10,3 °C 8,1 °C 3,9 °C 77 % 1025,1 hPa 0,0 l/m² 0,00 h 0 W/m² 0,0 km/h (0 Bft) 96,30 %
04.03.2026 21:00 9,0 °C 7,1 °C 3,2 °C 80 % 1024,9 hPa 0,0 l/m² 0,00 h 0 W/m² 0,0 km/h (0 Bft) 98,73 %
04.03.2026 22:00 8,1 °C 6,4 °C 2,7 °C 83 % 1024,8 hPa 0,0 l/m² 0,00 h 0 W/m² 0,2 km/h (0 Bft) 97,67 %
04.03.2026 23:00 7,4 °C 6,0 °C 2,3 °C 86 % 1024,7 hPa 0,0 l/m² 0,00 h 0 W/m² 0,1 km/h (0 Bft) 94,25 %
05.03.2026 00:00 7,2 °C 6,4 °C 2,3 °C 88 % 1024,3 hPa 0,0 l/m² 0,00 h 0 W/m² 1,3 km/h (1 Bft) 99,11 %
05.03.2026 01:00 7,7 °C 7,3 °C 3,6 °C 88 % 1024,2 hPa 0,0 l/m² 0,00 h 0 W/m² 5,3 km/h (1 Bft) 97,02 %
05.03.2026 02:00 7,5 °C 5,7 °C 2,1 °C 86 % 1023,8 hPa 0,0 l/m² 0,00 h 0 W/m² 1,0 km/h (0 Bft) 96,74 %
05.03.2026 03:00 6,9 °C 5,8 °C 2,0 °C 88 % 1023,4 hPa 0,0 l/m² 0,00 h 0 W/m² 1,9 km/h (1 Bft) 97,12 %
05.03.2026 04:00 6,8 °C 6,0 °C 1,9 °C 89 % 1023,2 hPa 0,0 l/m² 0,00 h 0 W/m² 2,9 km/h (1 Bft) 97,93 %
05.03.2026 05:00 6,6 °C 5,3 °C 1,4 °C 89 % 1022,9 hPa 0,0 l/m² 0,00 h 0 W/m² 2,1 km/h (1 Bft) 96,85 %
05.03.2026 06:00 6,2 °C 5,3 °C 1,6 °C 89 % 1022,5 hPa 0,0 l/m² 0,00 h 0 W/m² 4,9 km/h (1 Bft) 96,65 %
05.03.2026 07:00 6,4 °C 5,9 °C 2,1 °C 90 % 1022,4 hPa 0,0 l/m² 0,00 h 13 W/m² 4,8 km/h (1 Bft) 99,37 %
05.03.2026 08:00 7,2 °C 7,5 °C 3,1 °C 89 % 1022,3 hPa 0,0 l/m² 0,20 h 59 W/m² 5,3 km/h (1 Bft) 94,93 %
05.03.2026 09:00 10,1 °C 12,8 °C 5,5 °C 82 % 1022,3 hPa 0,0 l/m² 0,83 h 212 W/m² 15,8 km/h (3 Bft) 98,69 %
05.03.2026 10:00 12,7 °C 16,9 °C 9,3 °C 69 % 1022,1 hPa 0,0 l/m² 0,80 h 337 W/m² 22,7 km/h (4 Bft) 98,12 %
05.03.2026 11:00 14,8 °C 21,3 °C 15,8 °C 61 % 1021,8 hPa 0,0 l/m² 1,00 h 542 W/m² 23,7 km/h (4 Bft) 97,79 %
05.03.2026 12:00 16,4 °C 21,5 °C 14,1 °C 54 % 1021,5 hPa 0,0 l/m² 1,00 h 584 W/m² 21,9 km/h (4 Bft) 97,69 %
05.03.2026 13:00 18,1 °C 24,5 °C 13,4 °C 48 % 1020,9 hPa 0,0 l/m² 1,00 h 569 W/m² 22,1 km/h (4 Bft) 96,71 %
05.03.2026 14:00 18,9 °C 23,8 °C 13,8 °C 44 % 1020,0 hPa 0,0 l/m² 1,00 h 506 W/m² 21,9 km/h (4 Bft) 95,81 %
05.03.2026 15:00 19,3 °C 22,8 °C 13,9 °C 44 % 1019,3 hPa 0,0 l/m² 1,00 h 391 W/m² 18,1 km/h (3 Bft) 98,93 %
05.03.2026 16:00 18,8 °C 18,4 °C 12,7 °C 45 % 1018,8 hPa 0,0 l/m² 0,83 h 216 W/m² 16,1 km/h (3 Bft) 97,02 %
05.03.2026 17:00 17,3 °C 15,9 °C 11,4 °C 50 % 1018,5 hPa 0,0 l/m² 0,00 h 37 W/m² 7,6 km/h (2 Bft) 97,44 %
05.03.2026 18:00 15,3 °C 12,8 °C 8,3 °C 56 % 1018,7 hPa 0,0 l/m² 0,00 h 11 W/m² 2,2 km/h (1 Bft) 98,31 %
05.03.2026 19:00 13,1 °C 11,8 °C 7,9 °C 59 % 1018,8 hPa 0,0 l/m² 0,00 h 0 W/m² 7,0 km/h (2 Bft) 96,02 %
05.03.2026 20:00 12,7 °C 11,5 °C 7,7 °C 59 % 1019,1 hPa 0,0 l/m² 0,00 h 0 W/m² 9,0 km/h (2 Bft) 98,70 %
05.03.2026 21:00 11,8 °C 10,4 °C 6,8 °C 63 % 1019,5 hPa 0,0 l/m² 0,00 h 0 W/m² 8,0 km/h (2 Bft) 97,14 %
05.03.2026 22:00 10,9 °C 9,6 °C 5,9 °C 66 % 1019,8 hPa 0,0 l/m² 0,00 h 0 W/m² 5,2 km/h (1 Bft) 97,04 %
05.03.2026 23:00 10,1 °C 8,9 °C 5,3 °C 68 % 1019,8 hPa 0,0 l/m² 0,00 h 0 W/m² 5,2 km/h (1 Bft) 96,00 %
06.03.2026 00:00 9,4 °C 8,1 °C 4,6 °C 70 % 1019,9 hPa 0,0 l/m² 0,00 h 0 W/m² 4,6 km/h (1 Bft) 98,16 %
06.03.2026 01:00 9,2 °C 8,3 °C 4,8 °C 71 % 1019,9 hPa 0,0 l/m² 0,00 h 0 W/m² 8,2 km/h (2 Bft) 97,07 %
06.03.2026 02:00 9,0 °C 7,9 °C 4,4 °C 73 % 1020,0 hPa 0,0 l/m² 0,00 h 0 W/m² 8,9 km/h (2 Bft) 96,96 %
06.03.2026 03:00 8,8 °C 7,8 °C 4,3 °C 74 % 1020,0 hPa 0,0 l/m² 0,00 h 0 W/m² 11,5 km/h (2 Bft) 99,36 %
06.03.2026 04:00 8,3 °C 7,2 °C 3,5 °C 76 % 1020,1 hPa 0,0 l/m² 0,00 h 0 W/m² 5,3 km/h (1 Bft) 95,86 %
06.03.2026 05:00 8,1 °C 7,2 °C 3,5 °C 77 % 1020,2 hPa 0,0 l/m² 0,00 h 0 W/m² 8,0 km/h (2 Bft) 96,71 %
06.03.2026 06:00 8,0 °C 7,0 °C 3,3 °C 77 % 1020,4 hPa 0,0 l/m² 0,00 h 0 W/m² 5,3 km/h (1 Bft) 98,86 %
06.03.2026 07:00 7,4 °C 6,7 °C 2,8 °C 79 % 1020,8 hPa 0,0 l/m² 0,00 h 20 W/m² 2,6 km/h (1 Bft) 96,79 %
06.03.2026 08:00 8,0 °C 8,5 °C 4,2 °C 79 % 1021,1 hPa 0,0 l/m² 0,20 h 80 W/m² 8,2 km/h (2 Bft) 99,49 %
06.03.2026 09:00 10,7 °C 12,7 °C 6,7 °C 72 % 1021,5 hPa 0,0 l/m² 0,92 h 195 W/m² 14,1 km/h (3 Bft) 93,82 %
06.03.2026 10:00 13,0 °C 16,7 °C 10,0 °C 66 % 1021,8 hPa 0,0 l/m² 1,00 h 299 W/m² 14,4 km/h (3 Bft) 97,35 %
06.03.2026 11:00 15,2 °C 20,6 °C 14,3 °C 61 % 1021,9 hPa 0,0 l/m² 1,00 h 430 W/m² 12,2 km/h (3 Bft) 98,30 %
06.03.2026 12:00 17,1 °C 21,9 °C 14,2 °C 57 % 1022,0 hPa 0,0 l/m² 1,00 h 466 W/m² 12,9 km/h (3 Bft) 98,24 %
06.03.2026 13:00 18,5 °C 24,6 °C 13,3 °C 55 % 1021,9 hPa 0,0 l/m² 1,00 h 470 W/m² 9,2 km/h (2 Bft) 97,76 %
06.03.2026 14:00 19,1 °C 24,0 °C 13,5 °C 54 % 1021,5 hPa 0,0 l/m² 1,00 h 414 W/m² 7,9 km/h (2 Bft) 97,16 %
06.03.2026 15:00 19,9 °C 23,1 °C 13,8 °C 52 % 1021,2 hPa 0,0 l/m² 1,00 h 313 W/m² 4,6 km/h (1 Bft) 96,80 %
06.03.2026 16:00 19,3 °C 19,7 °C 12,8 °C 54 % 1021,1 hPa 0,0 l/m² 1,00 h 174 W/m² 3,0 km/h (1 Bft) 98,41 %
06.03.2026 17:00 18,1 °C 16,2 °C 10,4 °C 59 % 1021,5 hPa 0,0 l/m² 0,10 h 51 W/m² 0,0 km/h (0 Bft) 96,78 %
06.03.2026 18:00 15,8 °C 12,7 °C 7,6 °C 65 % 1022,1 hPa 0,0 l/m² 0,00 h 7 W/m² 0,0 km/h (0 Bft) 97,60 %
06.03.2026 19:00 13,6 °C 10,9 °C 6,1 °C 70 % 1022,6 hPa 0,0 l/m² 0,00 h 0 W/m² 0,0 km/h (0 Bft) 98,08 %
06.03.2026 20:00 11,9 °C 9,5 °C 5,1 °C 75 % 1023,0 hPa 0,0 l/m² 0,00 h 0 W/m² 0,0 km/h (0 Bft) 96,33 %
06.03.2026 21:00 10,5 °C 8,4 °C 4,2 °C 79 % 1023,3 hPa 0,0 l/m² 0,00 h 0 W/m² 0,0 km/h (0 Bft) 94,93 %
06.03.2026 22:00 9,3 °C 7,5 °C 3,5 °C 82 % 1023,6 hPa 0,0 l/m² 0,00 h 0 W/m² 0,0 km/h (0 Bft) 99,43 %
06.03.2026 23:00 8,4 °C 6,8 °C 3,1 °C 84 % 1023,8 hPa 0,0 l/m² 0,00 h 0 W/m² 0,1 km/h (0 Bft) 97,40 %
07.03.2026 00:00 7,9 °C 6,4 °C 2,7 °C 86 % 1023,9 hPa 0,0 l/m² 0,00 h 0 W/m² 0,0 km/h (0 Bft) 91,68 %
07.03.2026 01:00 7,2 °C 5,8 °C 2,1 °C 87 % 1024,1 hPa 0,0 l/m² 0,00 h 0 W/m² 0,0 km/h (0 Bft) 97,00 %
07.03.2026 02:00 6,6 °C 5,3 °C 1,7 °C 88 % 1024,1 hPa 0,0 l/m² 0,00 h 0 W/m² 0,0 km/h (0 Bft) 97,63 %
07.03.2026 03:00 6,1 °C 5,0 °C 1,5 °C 89 % 1024,0 hPa 0,0 l/m² 0,00 h 0 W/m² 0,3 km/h (0 Bft) 98,79 %
07.03.2026 04:00 5,7 °C 4,3 °C 1,2 °C 91 % 1024,0 hPa 0,0 l/m² 0,00 h 0 W/m² 0,1 km/h (0 Bft) 95,59 %
07.03.2026 05:00 5,0 °C 3,9 °C 0,6 °C 91 % 1024,4 hPa 0,0 l/m² 0,00 h 0 W/m² 0,0 km/h (0 Bft) 96,30 %
07.03.2026 06:00 4,7 °C 3,9 °C 0,6 °C 92 % 1024,7 hPa 0,0 l/m² 0,00 h 0 W/m² 0,1 km/h (0 Bft) 98,26 %
07.03.2026 07:00 4,6 °C 3,9 °C 0,6 °C 92 % 1024,9 hPa 0,0 l/m² 0,00 h 19 W/m² 0,2 km/h (0 Bft) 94,99 %
07.03.2026 08:00 5,3 °C 6,2 °C 2,0 °C 94 % 1025,1 hPa 0,0 l/m² 0,00 h 75 W/m² 2,0 km/h (1 Bft) 95,47 %
07.03.2026 09:00 7,5 °C 11,0 °C 4,7 °C 95 % 1025,5 hPa 0,0 l/m² 0,43 h 170 W/m² 2,2 km/h (1 Bft) 98,50 %
07.03.2026 10:00 10,8 °C 16,6 °C 9,1 °C 85 % 1025,7 hPa 0,0 l/m² 1,00 h 298 W/m² 0,0 km/h (0 Bft) 98,13 %
07.03.2026 11:00 14,6 °C 22,2 °C 13,8 °C 72 % 1025,8 hPa 0,0 l/m² 1,00 h 403 W/m² 0,0 km/h (0 Bft) 96,57 %
07.03.2026 12:00 16,5 °C 22,9 °C 12,9 °C 67 % 1025,6 hPa 0,0 l/m² 1,00 h 437 W/m² 0,6 km/h (0 Bft) 97,06 %
07.03.2026 13:00 18,3 °C 25,6 °C 13,1 °C 61 % 1025,2 hPa 0,0 l/m² 1,00 h 449 W/m² 6,0 km/h (2 Bft) 96,81 %
07.03.2026 14:00 19,8 °C 25,2 °C 14,0 °C 55 % 1024,8 hPa 0,0 l/m² 1,00 h 405 W/m² 6,8 km/h (2 Bft) 98,37 %
07.03.2026 15:00 20,0 °C 22,0 °C 13,8 °C 54 % 1024,5 hPa 0,0 l/m² 0,93 h 264 W/m² 7,7 km/h (2 Bft) 98,19 %
07.03.2026 16:00 18,5 °C 18,8 °C 12,9 °C 60 % 1024,2 hPa 0,0 l/m² 1,00 h 174 W/m² 7,8 km/h (2 Bft) 95,87 %
07.03.2026 17:00 17,1 °C 16,1 °C 11,5 °C 67 % 1024,2 hPa 0,0 l/m² 0,30 h 64 W/m² 6,3 km/h (2 Bft) 97,94 %
07.03.2026 18:00 15,5 °C 13,1 °C 8,9 °C 72 % 1024,4 hPa 0,0 l/m² 0,00 h 12 W/m² 1,0 km/h (0 Bft) 97,31 %
07.03.2026 19:00 13,8 °C 11,2 °C 7,0 °C 75 % 1024,6 hPa 0,0 l/m² 0,00 h 0 W/m² 0,0 km/h (0 Bft) 95,97 %
07.03.2026 20:00 12,2 °C 9,9 °C 5,9 °C 79 % 1024,8 hPa 0,0 l/m² 0,00 h 0 W/m² 0,0 km/h (0 Bft) 96,88 %
07.03.2026 21:00 10,9 °C 8,6 °C 4,7 °C 82 % 1024,9 hPa 0,0 l/m² 0,00 h 0 W/m² 0,0 km/h (0 Bft) 98,00 %
07.03.2026 22:00 9,6 °C 7,6 °C 3,8 °C 84 % 1024,9 hPa 0,0 l/m² 0,00 h 0 W/m² 0,0 km/h (0 Bft) 96,16 %
07.03.2026 23:00 8,6 °C 6,8 °C 3,2 °C 85 % 1024,8 hPa 0,0 l/m² 0,00 h 0 W/m² 0,0 km/h (0 Bft) 95,71 %
08.03.2026 00:00 7,8 °C 6,0 °C 2,7 °C 87 % 1024,6 hPa 0,0 l/m² 0,00 h 0 W/m² 0,0 km/h (0 Bft) 93,24 %
08.03.2026 01:00 7,0 °C 5,4 °C 2,0 °C 88 % 1024,6 hPa 0,0 l/m² 0,00 h 0 W/m² 0,0 km/h (0 Bft) 98,85 %
08.03.2026 02:00 6,2 °C 4,8 °C 1,6 °C 89 % 1024,3 hPa 0,0 l/m² 0,00 h 0 W/m² 0,0 km/h (0 Bft) 96,26 %
08.03.2026 03:00 5,7 °C 4,3 °C 1,1 °C 90 % 1024,2 hPa 0,0 l/m² 0,00 h 0 W/m² 0,0 km/h (0 Bft) 97,45 %
08.03.2026 04:00 5,0 °C 3,5 °C 0,6 °C 90 % 1024,0 hPa 0,0 l/m² 0,00 h 0 W/m² 0,0 km/h (0 Bft) 98,78 %
08.03.2026 05:00 4,2 °C 3,1 °C 0,0 °C 91 % 1024,2 hPa 0,0 l/m² 0,00 h 0 W/m² 0,0 km/h (0 Bft) 95,87 %
08.03.2026 06:00 3,8 °C 2,7 °C -0,5 °C 92 % 1024,5 hPa 0,0 l/m² 0,00 h 0 W/m² 0,0 km/h (0 Bft) 96,64 %
08.03.2026 07:00 3,3 °C 2,6 °C -0,5 °C 92 % 1024,7 hPa 0,0 l/m² 0,00 h 21 W/m² 0,0 km/h (0 Bft) 97,48 %
08.03.2026 08:00 4,0 °C 4,8 °C 0,6 °C 94 % 1024,9 hPa 0,0 l/m² 0,17 h 80 W/m² 0,0 km/h (0 Bft) 97,15 %
08.03.2026 09:00 6,9 °C 11,5 °C 3,7 °C 96 % 1025,0 hPa 0,0 l/m² 0,87 h 199 W/m² 3,4 km/h (1 Bft) 97,12 %
08.03.2026 10:00 10,2 °C 17,1 °C 10,1 °C 89 % 1025,0 hPa 0,0 l/m² 0,87 h 293 W/m² 5,4 km/h (1 Bft) 95,25 %
08.03.2026 11:00 14,3 °C 23,5 °C 15,8 °C 70 % 1024,8 hPa 0,0 l/m² 1,00 h 487 W/m² 8,8 km/h (2 Bft) 96,73 %
08.03.2026 12:00 17,1 °C 24,6 °C 14,4 °C 61 % 1024,4 hPa 0,0 l/m² 1,00 h 557 W/m² 6,6 km/h (2 Bft) 94,64 %
08.03.2026 13:00 18,9 °C 27,4 °C 13,3 °C 54 % 1023,7 hPa 0,0 l/m² 1,00 h 542 W/m² 7,1 km/h (2 Bft) 99,22 %
08.03.2026 14:00 20,0 °C 26,4 °C 14,3 °C 48 % 1023,2 hPa 0,0 l/m² 1,00 h 486 W/m² 9,3 km/h (2 Bft) 98,01 %
08.03.2026 15:00 20,7 °C 25,2 °C 14,5 °C 42 % 1022,8 hPa 0,0 l/m² 1,00 h 384 W/m² 6,4 km/h (2 Bft) 96,80 %
08.03.2026 16:00 20,6 °C 20,3 °C 13,3 °C 43 % 1022,5 hPa 0,0 l/m² 1,00 h 228 W/m² 6,6 km/h (2 Bft) 97,08 %
08.03.2026 17:00 18,8 °C 16,3 °C 10,4 °C 49 % 1022,3 hPa 0,0 l/m² 0,17 h 60 W/m² 1,0 km/h (0 Bft) 97,65 %
08.03.2026 18:00 16,2 °C 12,6 °C 7,5 °C 57 % 1022,4 hPa 0,0 l/m² 0,00 h 13 W/m² 0,0 km/h (0 Bft) 97,05 %
08.03.2026 19:00 13,1 °C 9,9 °C 5,5 °C 67 % 1022,6 hPa 0,0 l/m² 0,00 h 0 W/m² 0,1 km/h (0 Bft) 99,43 %
08.03.2026 20:00 11,0 °C 9,2 °C 4,7 °C 71 % 1022,5 hPa 0,0 l/m² 0,00 h 0 W/m² 0,0 km/h (0 Bft) 94,07 %
08.03.2026 21:00 10,2 °C 8,0 °C 3,8 °C 73 % 1022,5 hPa 0,0 l/m² 0,00 h 0 W/m² 0,0 km/h (0 Bft) 97,55 %
08.03.2026 22:00 8,9 °C 6,9 °C 3,2 °C 77 % 1022,2 hPa 0,0 l/m² 0,00 h 0 W/m² 0,0 km/h (0 Bft) 98,55 %
08.03.2026 23:00 8,6 °C 8,4 °C 4,3 °C 80 % 1022,1 hPa 0,0 l/m² 0,00 h 0 W/m² 4,0 km/h (1 Bft) 96,73 %
Min-Datum _ 08.03.26 04.03.26 04.03.26 08.03.26 05.03.26 - - - 02.03.26 07.03.26
_ Min-Zeit 07:34 06:14 06:56 15:18 17:30 - - - 00:08 07:26
Minimum _ 3,2 °C 2,2 °C -1,1 °C 40 % 1018,4 hPa - - - 0,0 km/h (0 Bft) 16,67 %
Max-Datum _ 08.03.26 03.03.26 03.03.26 04.03.26 04.03.26 02.03.26 06.03.26 05.03.26 05.03.26 02.03.26
_ Max-Zeit 15:54 13:26 11:46 09:12 08:58 00:00 09:11 12:28 10:52 00:58
Maximum _ 21,3 °C 29,4 °C 20,0 °C 97 % 1027,8 hPa 0,0 l/m² 0,08 h 589 W/m² 38,6 km/h
S-SO (5 Bft)
100,00 %
Durchschnitt _ 11,2 °C 12,0 °C 6,4 °C 75 % 1023,6 hPa #0,0 l/m² #54:03 h 264 W/m² 6,1 km/h (2 Bft) 97,11 %
© 2026 W. Hausmann